sensor_id;sensor_type;location;lat;lon;timestamp;P1;durP1;ratioP1;P2;durP2;ratioP2
3101;SDS011;1561;42.666;23.392;2023-10-19T00:02:44;16.57;;;11.90;;
3101;SDS011;1561;42.666;23.392;2023-10-19T00:05:12;15.73;;;11.37;;
3101;SDS011;1561;42.666;23.392;2023-10-19T00:07:42;14.50;;;11.87;;
3101;SDS011;1561;42.666;23.392;2023-10-19T00:10:10;16.10;;;12.20;;
3101;SDS011;1561;42.666;23.392;2023-10-19T00:12:41;13.50;;;10.60;;
3101;SDS011;1561;42.666;23.392;2023-10-19T00:15:09;15.57;;;11.37;;
3101;SDS011;1561;42.666;23.392;2023-10-19T00:17:37;16.10;;;11.43;;
3101;SDS011;1561;42.666;23.392;2023-10-19T00:20:10;15.87;;;12.23;;
3101;SDS011;1561;42.666;23.392;2023-10-19T00:23:11;15.40;;;11.00;;
3101;SDS011;1561;42.666;23.392;2023-10-19T00:25:39;16.77;;;11.70;;
3101;SDS011;1561;42.666;23.392;2023-10-19T00:28:07;16.60;;;12.07;;
3101;SDS011;1561;42.666;23.392;2023-10-19T00:30:34;16.80;;;12.07;;
3101;SDS011;1561;42.666;23.392;2023-10-19T00:33:01;19.40;;;11.00;;
3101;SDS011;1561;42.666;23.392;2023-10-19T00:35:40;17.00;;;11.70;;
3101;SDS011;1561;42.666;23.392;2023-10-19T00:38:25;15.67;;;11.50;;
3101;SDS011;1561;42.666;23.392;2023-10-19T00:41:07;14.83;;;11.20;;
3101;SDS011;1561;42.666;23.392;2023-10-19T00:43:39;13.83;;;11.00;;
3101;SDS011;1561;42.666;23.392;2023-10-19T00:46:11;16.30;;;12.10;;
3101;SDS011;1561;42.666;23.392;2023-10-19T00:48:51;15.40;;;11.40;;
3101;SDS011;1561;42.666;23.392;2023-10-19T00:51:23;16.13;;;12.20;;
3101;SDS011;1561;42.666;23.392;2023-10-19T00:54:12;19.00;;;13.50;;
3101;SDS011;1561;42.666;23.392;2023-10-19T00:56:51;19.83;;;15.20;;
3101;SDS011;1561;42.666;23.392;2023-10-19T00:59:29;22.60;;;16.30;;
3101;SDS011;1561;42.666;23.392;2023-10-19T01:02:00;23.20;;;15.70;;
3101;SDS011;1561;42.666;23.392;2023-10-19T01:04:42;20.77;;;14.67;;
3101;SDS011;1561;42.666;23.392;2023-10-19T01:07:16;24.70;;;16.27;;
3101;SDS011;1561;42.666;23.392;2023-10-19T01:09:57;24.50;;;17.57;;
3101;SDS011;1561;42.666;23.392;2023-10-19T01:12:29;25.07;;;16.80;;
3101;SDS011;1561;42.666;23.392;2023-10-19T01:15:06;23.53;;;17.77;;
3101;SDS011;1561;42.666;23.392;2023-10-19T01:17:38;21.80;;;15.77;;
3101;SDS011;1561;42.666;23.392;2023-10-19T01:20:09;24.17;;;18.37;;
3101;SDS011;1561;42.666;23.392;2023-10-19T01:22:53;26.87;;;18.83;;
3101;SDS011;1561;42.666;23.392;2023-10-19T01:25:31;26.10;;;16.80;;
3101;SDS011;1561;42.666;23.392;2023-10-19T01:28:06;22.30;;;16.30;;
3101;SDS011;1561;42.666;23.392;2023-10-19T01:30:35;21.93;;;16.00;;
3101;SDS011;1561;42.666;23.392;2023-10-19T01:33:04;22.27;;;15.50;;
3101;SDS011;1561;42.666;23.392;2023-10-19T01:35:41;24.00;;;14.33;;
3101;SDS011;1561;42.666;23.392;2023-10-19T01:38:26;15.03;;;11.73;;
3101;SDS011;1561;42.666;23.392;2023-10-19T01:40:56;17.10;;;12.67;;
3101;SDS011;1561;42.666;23.392;2023-10-19T01:43:25;19.67;;;12.40;;
3101;SDS011;1561;42.666;23.392;2023-10-19T01:45:55;15.93;;;11.27;;
3101;SDS011;1561;42.666;23.392;2023-10-19T01:48:23;13.83;;;10.70;;
3101;SDS011;1561;42.666;23.392;2023-10-19T01:50:59;11.77;;;9.77;;
3101;SDS011;1561;42.666;23.392;2023-10-19T01:53:31;13.67;;;10.43;;
3101;SDS011;1561;42.666;23.392;2023-10-19T01:55:59;14.07;;;11.10;;
3101;SDS011;1561;42.666;23.392;2023-10-19T01:58:25;12.87;;;9.33;;
3101;SDS011;1561;42.666;23.392;2023-10-19T02:00:53;14.60;;;10.00;;
3101;SDS011;1561;42.666;23.392;2023-10-19T02:03:20;12.60;;;10.40;;
3101;SDS011;1561;42.666;23.392;2023-10-19T02:05:50;11.70;;;9.03;;
3101;SDS011;1561;42.666;23.392;2023-10-19T02:08:25;12.13;;;9.03;;
3101;SDS011;1561;42.666;23.392;2023-10-19T02:10:59;11.93;;;9.43;;
3101;SDS011;1561;42.666;23.392;2023-10-19T02:13:28;11.90;;;8.93;;
3101;SDS011;1561;42.666;23.392;2023-10-19T02:15:58;13.53;;;9.50;;
3101;SDS011;1561;42.666;23.392;2023-10-19T02:18:24;16.30;;;10.83;;
3101;SDS011;1561;42.666;23.392;2023-10-19T02:20:52;12.83;;;10.13;;
3101;SDS011;1561;42.666;23.392;2023-10-19T02:23:18;13.30;;;10.03;;
3101;SDS011;1561;42.666;23.392;2023-10-19T02:25:45;16.10;;;12.20;;
3101;SDS011;1561;42.666;23.392;2023-10-19T02:28:23;15.97;;;12.27;;
3101;SDS011;1561;42.666;23.392;2023-10-19T02:30:56;17.93;;;13.63;;
3101;SDS011;1561;42.666;23.392;2023-10-19T02:33:36;18.90;;;13.67;;
3101;SDS011;1561;42.666;23.392;2023-10-19T02:36:02;17.63;;;12.70;;
3101;SDS011;1561;42.666;23.392;2023-10-19T02:38:47;20.40;;;15.23;;
3101;SDS011;1561;42.666;23.392;2023-10-19T02:41:15;18.23;;;14.10;;
3101;SDS011;1561;42.666;23.392;2023-10-19T02:43:46;16.30;;;13.03;;
3101;SDS011;1561;42.666;23.392;2023-10-19T02:46:28;17.30;;;12.23;;
3101;SDS011;1561;42.666;23.392;2023-10-19T02:48:53;17.50;;;12.40;;
3101;SDS011;1561;42.666;23.392;2023-10-19T02:51:21;18.30;;;12.47;;
3101;SDS011;1561;42.666;23.392;2023-10-19T02:53:48;16.20;;;12.30;;
3101;SDS011;1561;42.666;23.392;2023-10-19T02:56:16;21.10;;;12.50;;
3101;SDS011;1561;42.666;23.392;2023-10-19T02:58:46;16.77;;;12.40;;
3101;SDS011;1561;42.666;23.392;2023-10-19T03:01:15;19.97;;;12.60;;
3101;SDS011;1561;42.666;23.392;2023-10-19T03:03:47;19.40;;;13.30;;
3101;SDS011;1561;42.666;23.392;2023-10-19T03:06:20;17.13;;;11.60;;
3101;SDS011;1561;42.666;23.392;2023-10-19T03:08:51;17.10;;;13.20;;
3101;SDS011;1561;42.666;23.392;2023-10-19T03:11:23;18.60;;;12.50;;
3101;SDS011;1561;42.666;23.392;2023-10-19T03:13:53;11.50;;;8.53;;
3101;SDS011;1561;42.666;23.392;2023-10-19T03:16:33;14.20;;;8.40;;
3101;SDS011;1561;42.666;23.392;2023-10-19T03:19:03;12.80;;;9.80;;
3101;SDS011;1561;42.666;23.392;2023-10-19T03:21:45;14.57;;;8.93;;
3101;SDS011;1561;42.666;23.392;2023-10-19T03:24:14;10.50;;;7.57;;
3101;SDS011;1561;42.666;23.392;2023-10-19T03:26:51;19.03;;;9.93;;
3101;SDS011;1561;42.666;23.392;2023-10-19T03:29:22;12.40;;;8.80;;
3101;SDS011;1561;42.666;23.392;2023-10-19T03:31:56;13.23;;;9.47;;
3101;SDS011;1561;42.666;23.392;2023-10-19T03:34:24;11.93;;;8.90;;
3101;SDS011;1561;42.666;23.392;2023-10-19T03:37:03;12.50;;;9.47;;
3101;SDS011;1561;42.666;23.392;2023-10-19T03:39:37;12.83;;;9.57;;
3101;SDS011;1561;42.666;23.392;2023-10-19T03:42:11;11.73;;;8.53;;
3101;SDS011;1561;42.666;23.392;2023-10-19T03:44:41;11.93;;;9.37;;
3101;SDS011;1561;42.666;23.392;2023-10-19T03:47:17;11.60;;;8.60;;
3101;SDS011;1561;42.666;23.392;2023-10-19T03:50:04;10.37;;;8.60;;
3101;SDS011;1561;42.666;23.392;2023-10-19T03:52:54;13.40;;;10.23;;
3101;SDS011;1561;42.666;23.392;2023-10-19T03:55:23;16.10;;;11.10;;
3101;SDS011;1561;42.666;23.392;2023-10-19T03:57:54;20.10;;;11.43;;
3101;SDS011;1561;42.666;23.392;2023-10-19T04:00:23;17.03;;;13.37;;
3101;SDS011;1561;42.666;23.392;2023-10-19T04:02:54;18.03;;;13.80;;
3101;SDS011;1561;42.666;23.392;2023-10-19T04:05:23;16.33;;;12.20;;
3101;SDS011;1561;42.666;23.392;2023-10-19T04:07:53;18.30;;;12.77;;
3101;SDS011;1561;42.666;23.392;2023-10-19T04:10:23;19.73;;;12.27;;
3101;SDS011;1561;42.666;23.392;2023-10-19T04:13:12;22.30;;;14.07;;
3101;SDS011;1561;42.666;23.392;2023-10-19T04:15:40;18.03;;;12.87;;
3101;SDS011;1561;42.666;23.392;2023-10-19T04:18:07;18.60;;;13.43;;
3101;SDS011;1561;42.666;23.392;2023-10-19T04:20:36;18.70;;;12.50;;
3101;SDS011;1561;42.666;23.392;2023-10-19T04:23:24;17.60;;;13.00;;
3101;SDS011;1561;42.666;23.392;2023-10-19T04:25:54;17.93;;;13.53;;
3101;SDS011;1561;42.666;23.392;2023-10-19T04:28:30;19.27;;;15.00;;
3101;SDS011;1561;42.666;23.392;2023-10-19T04:31:22;19.37;;;13.63;;
3101;SDS011;1561;42.666;23.392;2023-10-19T04:33:51;21.30;;;14.87;;
3101;SDS011;1561;42.666;23.392;2023-10-19T04:36:37;24.90;;;16.10;;
3101;SDS011;1561;42.666;23.392;2023-10-19T04:39:13;25.37;;;18.47;;
3101;SDS011;1561;42.666;23.392;2023-10-19T04:41:40;25.63;;;17.97;;
3101;SDS011;1561;42.666;23.392;2023-10-19T04:44:11;27.47;;;19.00;;
3101;SDS011;1561;42.666;23.392;2023-10-19T04:46:42;26.80;;;19.20;;
3101;SDS011;1561;42.666;23.392;2023-10-19T04:49:12;23.13;;;18.00;;
3101;SDS011;1561;42.666;23.392;2023-10-19T04:55:03;24.73;;;18.97;;
3101;SDS011;1561;42.666;23.392;2023-10-19T04:57:34;27.50;;;20.57;;
3101;SDS011;1561;42.666;23.392;2023-10-19T05:02:54;30.63;;;21.20;;
3101;SDS011;1561;42.666;23.392;2023-10-19T05:05:25;33.10;;;24.10;;
3101;SDS011;1561;42.666;23.392;2023-10-19T05:07:56;47.97;;;27.97;;
3101;SDS011;1561;42.666;23.392;2023-10-19T05:10:23;25.23;;;20.60;;
3101;SDS011;1561;42.666;23.392;2023-10-19T05:12:51;24.97;;;18.40;;
3101;SDS011;1561;42.666;23.392;2023-10-19T05:15:20;35.53;;;23.70;;
3101;SDS011;1561;42.666;23.392;2023-10-19T05:17:48;32.53;;;22.33;;
3101;SDS011;1561;42.666;23.392;2023-10-19T05:20:17;15.53;;;11.53;;
3101;SDS011;1561;42.666;23.392;2023-10-19T05:22:46;13.70;;;9.20;;
3101;SDS011;1561;42.666;23.392;2023-10-19T05:25:13;9.93;;;7.40;;
3101;SDS011;1561;42.666;23.392;2023-10-19T05:27:40;9.23;;;7.40;;
3101;SDS011;1561;42.666;23.392;2023-10-19T05:30:11;9.97;;;6.60;;
3101;SDS011;1561;42.666;23.392;2023-10-19T05:32:39;7.20;;;6.27;;
3101;SDS011;1561;42.666;23.392;2023-10-19T05:35:06;7.23;;;6.10;;
3101;SDS011;1561;42.666;23.392;2023-10-19T05:37:42;10.47;;;9.00;;
3101;SDS011;1561;42.666;23.392;2023-10-19T05:40:10;15.13;;;12.57;;
3101;SDS011;1561;42.666;23.392;2023-10-19T05:42:40;16.80;;;13.70;;
3101;SDS011;1561;42.666;23.392;2023-10-19T05:45:08;23.53;;;15.63;;
3101;SDS011;1561;42.666;23.392;2023-10-19T05:47:41;29.97;;;18.00;;
3101;SDS011;1561;42.666;23.392;2023-10-19T05:50:09;20.87;;;16.27;;
3101;SDS011;1561;42.666;23.392;2023-10-19T05:52:41;28.13;;;17.23;;
3101;SDS011;1561;42.666;23.392;2023-10-19T05:55:08;22.27;;;15.83;;
3101;SDS011;1561;42.666;23.392;2023-10-19T05:57:37;22.47;;;17.93;;
3101;SDS011;1561;42.666;23.392;2023-10-19T06:00:06;22.30;;;15.67;;
3101;SDS011;1561;42.666;23.392;2023-10-19T06:02:38;29.57;;;17.27;;
3101;SDS011;1561;42.666;23.392;2023-10-19T06:05:09;27.03;;;16.97;;
3101;SDS011;1561;42.666;23.392;2023-10-19T06:07:37;27.37;;;18.00;;
3101;SDS011;1561;42.666;23.392;2023-10-19T06:10:10;22.73;;;18.00;;
3101;SDS011;1561;42.666;23.392;2023-10-19T06:12:41;24.13;;;16.67;;
3101;SDS011;1561;42.666;23.392;2023-10-19T06:15:08;21.87;;;16.13;;
3101;SDS011;1561;42.666;23.392;2023-10-19T06:17:37;21.00;;;12.80;;
3101;SDS011;1561;42.666;23.392;2023-10-19T06:20:07;20.40;;;15.67;;
3101;SDS011;1561;42.666;23.392;2023-10-19T06:22:45;19.80;;;15.03;;
3101;SDS011;1561;42.666;23.392;2023-10-19T06:25:17;19.70;;;13.43;;
3101;SDS011;1561;42.666;23.392;2023-10-19T06:27:45;16.93;;;13.00;;
3101;SDS011;1561;42.666;23.392;2023-10-19T06:30:12;22.63;;;13.67;;
3101;SDS011;1561;42.666;23.392;2023-10-19T06:32:44;15.90;;;11.57;;
3101;SDS011;1561;42.666;23.392;2023-10-19T06:35:13;18.70;;;11.53;;
3101;SDS011;1561;42.666;23.392;2023-10-19T06:37:41;14.87;;;12.43;;
3101;SDS011;1561;42.666;23.392;2023-10-19T06:40:09;20.20;;;12.30;;
3101;SDS011;1561;42.666;23.392;2023-10-19T06:42:41;17.80;;;11.90;;
3101;SDS011;1561;42.666;23.392;2023-10-19T06:45:08;17.40;;;12.63;;
3101;SDS011;1561;42.666;23.392;2023-10-19T06:47:39;16.77;;;13.20;;
3101;SDS011;1561;42.666;23.392;2023-10-19T06:50:10;20.73;;;12.97;;
3101;SDS011;1561;42.666;23.392;2023-10-19T06:52:38;9.40;;;8.40;;
3101;SDS011;1561;42.666;23.392;2023-10-19T06:55:08;9.50;;;8.40;;
3101;SDS011;1561;42.666;23.392;2023-10-19T06:57:43;17.50;;;12.77;;
3101;SDS011;1561;42.666;23.392;2023-10-19T07:00:11;26.63;;;16.50;;
3101;SDS011;1561;42.666;23.392;2023-10-19T07:02:41;25.73;;;16.83;;
3101;SDS011;1561;42.666;23.392;2023-10-19T07:05:14;23.43;;;14.77;;
3101;SDS011;1561;42.666;23.392;2023-10-19T07:07:51;20.87;;;15.07;;
3101;SDS011;1561;42.666;23.392;2023-10-19T07:10:22;20.60;;;14.87;;
3101;SDS011;1561;42.666;23.392;2023-10-19T07:12:52;17.90;;;13.37;;
3101;SDS011;1561;42.666;23.392;2023-10-19T07:15:21;18.77;;;13.60;;
3101;SDS011;1561;42.666;23.392;2023-10-19T07:17:50;17.97;;;14.13;;
3101;SDS011;1561;42.666;23.392;2023-10-19T07:20:19;18.53;;;14.40;;
3101;SDS011;1561;42.666;23.392;2023-10-19T07:22:50;16.97;;;12.57;;
3101;SDS011;1561;42.666;23.392;2023-10-19T07:25:17;16.97;;;13.13;;
3101;SDS011;1561;42.666;23.392;2023-10-19T07:27:53;16.87;;;12.90;;
3101;SDS011;1561;42.666;23.392;2023-10-19T07:30:20;16.33;;;14.10;;
3101;SDS011;1561;42.666;23.392;2023-10-19T07:32:52;16.93;;;13.50;;
3101;SDS011;1561;42.666;23.392;2023-10-19T07:35:23;15.77;;;12.50;;
3101;SDS011;1561;42.666;23.392;2023-10-19T07:37:56;15.60;;;12.60;;
3101;SDS011;1561;42.666;23.392;2023-10-19T07:40:31;14.30;;;12.80;;
3101;SDS011;1561;42.666;23.392;2023-10-19T07:43:03;19.90;;;14.63;;
3101;SDS011;1561;42.666;23.392;2023-10-19T07:45:35;17.20;;;15.40;;
3101;SDS011;1561;42.666;23.392;2023-10-19T07:48:14;16.33;;;13.90;;
3101;SDS011;1561;42.666;23.392;2023-10-19T07:50:44;15.13;;;13.53;;
3101;SDS011;1561;42.666;23.392;2023-10-19T07:53:13;17.60;;;13.63;;
3101;SDS011;1561;42.666;23.392;2023-10-19T07:55:45;17.27;;;13.97;;
3101;SDS011;1561;42.666;23.392;2023-10-19T07:58:16;18.07;;;13.83;;
3101;SDS011;1561;42.666;23.392;2023-10-19T08:00:45;18.10;;;13.10;;
3101;SDS011;1561;42.666;23.392;2023-10-19T08:03:19;16.63;;;13.23;;
3101;SDS011;1561;42.666;23.392;2023-10-19T08:05:46;16.23;;;14.45;;
3101;SDS011;1561;42.666;23.392;2023-10-19T08:08:15;15.93;;;14.32;;
3101;SDS011;1561;42.666;23.392;2023-10-19T08:10:43;16.50;;;13.32;;
3101;SDS011;1561;42.666;23.392;2023-10-19T08:13:12;16.60;;;13.32;;
3101;SDS011;1561;42.666;23.392;2023-10-19T08:15:43;15.93;;;14.43;;
3101;SDS011;1561;42.666;23.392;2023-10-19T08:18:11;14.63;;;13.27;;
3101;SDS011;1561;42.666;23.392;2023-10-19T08:20:40;14.77;;;13.27;;
3101;SDS011;1561;42.666;23.392;2023-10-19T08:23:10;12.38;;;11.27;;
3101;SDS011;1561;42.666;23.392;2023-10-19T08:25:43;12.30;;;11.13;;
3101;SDS011;1561;42.666;23.392;2023-10-19T08:28:10;12.95;;;11.68;;
3101;SDS011;1561;42.666;23.392;2023-10-19T08:30:37;14.35;;;13.02;;
3101;SDS011;1561;42.666;23.392;2023-10-19T08:33:13;12.68;;;11.68;;
3101;SDS011;1561;42.666;23.392;2023-10-19T08:35:40;13.93;;;12.63;;
3101;SDS011;1561;42.666;23.392;2023-10-19T08:38:09;13.48;;;12.27;;
3101;SDS011;1561;42.666;23.392;2023-10-19T08:40:36;14.02;;;12.60;;
3101;SDS011;1561;42.666;23.392;2023-10-19T08:43:03;14.50;;;13.10;;
3101;SDS011;1561;42.666;23.392;2023-10-19T08:45:30;13.60;;;12.40;;
3101;SDS011;1561;42.666;23.392;2023-10-19T08:48:00;13.52;;;12.32;;
3101;SDS011;1561;42.666;23.392;2023-10-19T08:50:30;13.50;;;12.30;;
3101;SDS011;1561;42.666;23.392;2023-10-19T08:52:59;11.82;;;10.60;;
3101;SDS011;1561;42.666;23.392;2023-10-19T08:55:27;13.82;;;12.52;;
3101;SDS011;1561;42.666;23.392;2023-10-19T08:57:57;13.30;;;12.05;;
3101;SDS011;1561;42.666;23.392;2023-10-19T09:00:25;14.30;;;12.77;;
3101;SDS011;1561;42.666;23.392;2023-10-19T09:02:53;15.15;;;13.15;;
3101;SDS011;1561;42.666;23.392;2023-10-19T09:05:22;11.90;;;10.80;;
3101;SDS011;1561;42.666;23.392;2023-10-19T09:07:52;14.30;;;12.93;;
3101;SDS011;1561;42.666;23.392;2023-10-19T09:10:22;13.88;;;12.52;;
3101;SDS011;1561;42.666;23.392;2023-10-19T09:13:02;12.23;;;11.02;;
3101;SDS011;1561;42.666;23.392;2023-10-19T09:15:34;14.27;;;12.77;;
3101;SDS011;1561;42.666;23.392;2023-10-19T09:18:11;12.60;;;11.32;;
3101;SDS011;1561;42.666;23.392;2023-10-19T09:20:40;12.20;;;11.10;;
3101;SDS011;1561;42.666;23.392;2023-10-19T09:26:09;13.10;;;11.90;;
3101;SDS011;1561;42.666;23.392;2023-10-19T09:28:39;13.68;;;12.55;;
3101;SDS011;1561;42.666;23.392;2023-10-19T09:31:07;13.10;;;11.90;;
3101;SDS011;1561;42.666;23.392;2023-10-19T09:33:35;11.80;;;10.90;;
3101;SDS011;1561;42.666;23.392;2023-10-19T09:36:06;12.88;;;11.57;;
3101;SDS011;1561;42.666;23.392;2023-10-19T09:38:39;12.55;;;11.45;;
3101;SDS011;1561;42.666;23.392;2023-10-19T09:41:12;12.60;;;11.18;;
3101;SDS011;1561;42.666;23.392;2023-10-19T09:43:41;14.75;;;13.23;;
3101;SDS011;1561;42.666;23.392;2023-10-19T09:46:10;12.70;;;11.38;;
3101;SDS011;1561;42.666;23.392;2023-10-19T09:48:39;14.15;;;12.05;;
3101;SDS011;1561;42.666;23.392;2023-10-19T09:51:14;9.07;;;8.20;;
3101;SDS011;1561;42.666;23.392;2023-10-19T09:53:45;11.63;;;9.88;;
3101;SDS011;1561;42.666;23.392;2023-10-19T09:56:20;19.20;;;14.10;;
3101;SDS011;1561;42.666;23.392;2023-10-19T09:58:54;10.82;;;9.90;;
3101;SDS011;1561;42.666;23.392;2023-10-19T10:01:28;12.55;;;11.05;;
3101;SDS011;1561;42.666;23.392;2023-10-19T10:03:55;12.43;;;11.23;;
3101;SDS011;1561;42.666;23.392;2023-10-19T10:06:29;11.93;;;10.90;;
3101;SDS011;1561;42.666;23.392;2023-10-19T10:09:08;11.18;;;10.07;;
3101;SDS011;1561;42.666;23.392;2023-10-19T10:11:52;11.57;;;10.25;;
3101;SDS011;1561;42.666;23.392;2023-10-19T10:14:21;12.60;;;11.40;;
3101;SDS011;1561;42.666;23.392;2023-10-19T10:17:00;11.40;;;10.30;;
3101;SDS011;1561;42.666;23.392;2023-10-19T10:19:35;13.27;;;11.38;;
3101;SDS011;1561;42.666;23.392;2023-10-19T10:22:07;9.80;;;9.00;;
3101;SDS011;1561;42.666;23.392;2023-10-19T10:24:39;10.10;;;9.20;;
3101;SDS011;1561;42.666;23.392;2023-10-19T10:27:09;11.40;;;10.20;;
3101;SDS011;1561;42.666;23.392;2023-10-19T10:29:53;15.90;;;10.73;;
3101;SDS011;1561;42.666;23.392;2023-10-19T10:38:13;12.73;;;11.50;;
3101;SDS011;1561;42.666;23.392;2023-10-19T10:40:43;12.32;;;11.20;;
3101;SDS011;1561;42.666;23.392;2023-10-19T10:43:13;11.27;;;10.23;;
3101;SDS011;1561;42.666;23.392;2023-10-19T10:45:41;11.50;;;10.40;;
3101;SDS011;1561;42.666;23.392;2023-10-19T10:48:12;11.27;;;10.23;;
3101;SDS011;1561;42.666;23.392;2023-10-19T10:50:40;12.30;;;11.10;;
3101;SDS011;1561;42.666;23.392;2023-10-19T10:53:12;12.30;;;11.07;;
3101;SDS011;1561;42.666;23.392;2023-10-19T10:55:41;10.73;;;9.82;;
3101;SDS011;1561;42.666;23.392;2023-10-19T10:58:09;11.25;;;10.07;;
3101;SDS011;1561;42.666;23.392;2023-10-19T11:00:43;12.43;;;11.23;;
3101;SDS011;1561;42.666;23.392;2023-10-19T11:03:12;12.30;;;11.10;;
3101;SDS011;1561;42.666;23.392;2023-10-19T11:05:44;11.50;;;10.50;;
3101;SDS011;1561;42.666;23.392;2023-10-19T11:08:12;10.45;;;9.60;;
3101;SDS011;1561;42.666;23.392;2023-10-19T11:10:43;10.43;;;9.52;;
3101;SDS011;1561;42.666;23.392;2023-10-19T11:13:13;11.05;;;10.07;;
3101;SDS011;1561;42.666;23.392;2023-10-19T11:15:50;12.00;;;11.05;;
3101;SDS011;1561;42.666;23.392;2023-10-19T11:18:27;10.73;;;9.75;;
3101;SDS011;1561;42.666;23.392;2023-10-19T11:20:56;12.10;;;9.98;;
3101;SDS011;1561;42.666;23.392;2023-10-19T11:26:09;11.55;;;10.43;;
3101;SDS011;1561;42.666;23.392;2023-10-19T11:28:37;11.35;;;10.45;;
3101;SDS011;1561;42.666;23.392;2023-10-19T11:31:25;11.82;;;10.82;;
3101;SDS011;1561;42.666;23.392;2023-10-19T11:34:23;11.05;;;10.02;;
3101;SDS011;1561;42.666;23.392;2023-10-19T11:36:53;13.93;;;12.45;;
3101;SDS011;1561;42.666;23.392;2023-10-19T11:39:24;61.78;;;36.47;;
3101;SDS011;1561;42.666;23.392;2023-10-19T11:41:55;12.05;;;9.63;;
3101;SDS011;1561;42.666;23.392;2023-10-19T11:44:22;12.18;;;11.18;;
3101;SDS011;1561;42.666;23.392;2023-10-19T11:46:53;11.30;;;10.18;;
3101;SDS011;1561;42.666;23.392;2023-10-19T11:49:23;12.77;;;10.88;;
3101;SDS011;1561;42.666;23.392;2023-10-19T11:51:50;9.80;;;8.95;;
3101;SDS011;1561;42.666;23.392;2023-10-19T11:54:18;10.57;;;9.20;;
3101;SDS011;1561;42.666;23.392;2023-10-19T11:56:45;11.70;;;8.70;;
3101;SDS011;1561;42.666;23.392;2023-10-19T11:59:13;9.90;;;8.20;;
3101;SDS011;1561;42.666;23.392;2023-10-19T12:01:41;10.40;;;9.30;;
3101;SDS011;1561;42.666;23.392;2023-10-19T12:04:10;9.60;;;8.90;;
3101;SDS011;1561;42.666;23.392;2023-10-19T12:06:38;9.27;;;8.40;;
3101;SDS011;1561;42.666;23.392;2023-10-19T12:09:07;9.02;;;8.23;;
3101;SDS011;1561;42.666;23.392;2023-10-19T12:11:40;10.00;;;9.10;;
3101;SDS011;1561;42.666;23.392;2023-10-19T12:14:08;9.07;;;8.25;;
3101;SDS011;1561;42.666;23.392;2023-10-19T12:16:40;8.63;;;7.93;;
3101;SDS011;1561;42.666;23.392;2023-10-19T12:19:15;9.73;;;8.77;;
3101;SDS011;1561;42.666;23.392;2023-10-19T12:21:44;9.82;;;8.07;;
3101;SDS011;1561;42.666;23.392;2023-10-19T12:24:17;7.70;;;7.10;;
3101;SDS011;1561;42.666;23.392;2023-10-19T12:26:48;8.45;;;7.45;;
3101;SDS011;1561;42.666;23.392;2023-10-19T12:29:16;7.82;;;7.10;;
3101;SDS011;1561;42.666;23.392;2023-10-19T12:31:47;8.95;;;8.15;;
3101;SDS011;1561;42.666;23.392;2023-10-19T12:34:18;8.40;;;7.70;;
3101;SDS011;1561;42.666;23.392;2023-10-19T12:36:48;9.38;;;8.15;;
3101;SDS011;1561;42.666;23.392;2023-10-19T12:39:17;8.43;;;7.72;;
3101;SDS011;1561;42.666;23.392;2023-10-19T12:41:58;8.35;;;7.65;;
3101;SDS011;1561;42.666;23.392;2023-10-19T12:44:28;8.32;;;7.57;;
3101;SDS011;1561;42.666;23.392;2023-10-19T12:47:04;8.50;;;7.70;;
3101;SDS011;1561;42.666;23.392;2023-10-19T12:49:37;8.23;;;7.45;;
3101;SDS011;1561;42.666;23.392;2023-10-19T12:52:04;8.15;;;7.35;;
3101;SDS011;1561;42.666;23.392;2023-10-19T12:54:32;8.15;;;7.45;;
3101;SDS011;1561;42.666;23.392;2023-10-19T12:57:03;7.72;;;6.70;;
3101;SDS011;1561;42.666;23.392;2023-10-19T12:59:40;7.60;;;6.63;;
3101;SDS011;1561;42.666;23.392;2023-10-19T13:02:09;7.28;;;6.68;;
3101;SDS011;1561;42.666;23.392;2023-10-19T13:04:42;6.18;;;5.68;;
3101;SDS011;1561;42.666;23.392;2023-10-19T13:07:13;8.98;;;7.63;;
3101;SDS011;1561;42.666;23.392;2023-10-19T13:09:42;6.80;;;6.20;;
3101;SDS011;1561;42.666;23.392;2023-10-19T13:12:10;7.70;;;7.00;;
3101;SDS011;1561;42.666;23.392;2023-10-19T13:14:37;7.00;;;6.40;;
3101;SDS011;1561;42.666;23.392;2023-10-19T13:17:06;19.42;;;7.47;;
3101;SDS011;1561;42.666;23.392;2023-10-19T13:19:33;7.65;;;6.85;;
3101;SDS011;1561;42.666;23.392;2023-10-19T13:22:11;6.75;;;6.25;;
3101;SDS011;1561;42.666;23.392;2023-10-19T13:24:40;7.32;;;6.47;;
3101;SDS011;1561;42.666;23.392;2023-10-19T13:27:07;7.22;;;6.40;;
3101;SDS011;1561;42.666;23.392;2023-10-19T13:29:35;7.30;;;6.70;;
3101;SDS011;1561;42.666;23.392;2023-10-19T13:32:07;7.20;;;6.53;;
3101;SDS011;1561;42.666;23.392;2023-10-19T13:34:38;6.93;;;6.10;;
3101;SDS011;1561;42.666;23.392;2023-10-19T13:37:07;6.40;;;5.90;;
3101;SDS011;1561;42.666;23.392;2023-10-19T13:39:34;7.53;;;6.65;;
3101;SDS011;1561;42.666;23.392;2023-10-19T13:42:05;7.00;;;6.30;;
3101;SDS011;1561;42.666;23.392;2023-10-19T13:44:34;7.25;;;6.65;;
3101;SDS011;1561;42.666;23.392;2023-10-19T13:47:02;6.72;;;6.22;;
3101;SDS011;1561;42.666;23.392;2023-10-19T13:49:31;6.60;;;6.10;;
3101;SDS011;1561;42.666;23.392;2023-10-19T13:52:02;6.95;;;6.32;;
3101;SDS011;1561;42.666;23.392;2023-10-19T13:54:31;6.78;;;6.18;;
3101;SDS011;1561;42.666;23.392;2023-10-19T13:57:03;6.85;;;6.05;;
3101;SDS011;1561;42.666;23.392;2023-10-19T13:59:31;14.73;;;6.50;;
3101;SDS011;1561;42.666;23.392;2023-10-19T14:01:58;6.70;;;6.15;;
3101;SDS011;1561;42.666;23.392;2023-10-19T14:04:25;8.50;;;5.80;;
3101;SDS011;1561;42.666;23.392;2023-10-19T14:06:56;6.13;;;5.53;;
3101;SDS011;1561;42.666;23.392;2023-10-19T14:09:31;7.40;;;6.70;;
3101;SDS011;1561;42.666;23.392;2023-10-19T14:12:00;8.15;;;7.38;;
3101;SDS011;1561;42.666;23.392;2023-10-19T14:17:04;7.15;;;6.43;;
3101;SDS011;1561;42.666;23.392;2023-10-19T14:19:34;7.20;;;6.60;;
3101;SDS011;1561;42.666;23.392;2023-10-19T14:22:01;7.05;;;6.40;;
3101;SDS011;1561;42.666;23.392;2023-10-19T14:24:34;6.75;;;6.25;;
3101;SDS011;1561;42.666;23.392;2023-10-19T14:27:01;7.40;;;6.63;;
3101;SDS011;1561;42.666;23.392;2023-10-19T14:29:29;6.70;;;6.03;;
3101;SDS011;1561;42.666;23.392;2023-10-19T14:31:56;6.88;;;6.28;;
3101;SDS011;1561;42.666;23.392;2023-10-19T14:34:24;7.68;;;6.97;;
3101;SDS011;1561;42.666;23.392;2023-10-19T14:37:07;7.03;;;6.40;;
3101;SDS011;1561;42.666;23.392;2023-10-19T14:39:36;7.88;;;6.40;;
3101;SDS011;1561;42.666;23.392;2023-10-19T14:42:11;8.02;;;6.00;;
3101;SDS011;1561;42.666;23.392;2023-10-19T14:44:44;7.10;;;6.40;;
3101;SDS011;1561;42.666;23.392;2023-10-19T14:47:11;6.28;;;5.78;;
3101;SDS011;1561;42.666;23.392;2023-10-19T14:49:38;6.82;;;6.22;;
3101;SDS011;1561;42.666;23.392;2023-10-19T14:52:10;9.95;;;9.02;;
3101;SDS011;1561;42.666;23.392;2023-10-19T14:54:39;11.57;;;6.85;;
3101;SDS011;1561;42.666;23.392;2023-10-19T14:57:14;13.82;;;8.73;;
3101;SDS011;1561;42.666;23.392;2023-10-19T14:59:42;31.92;;;15.02;;
3101;SDS011;1561;42.666;23.392;2023-10-19T15:02:16;10.30;;;8.52;;
3101;SDS011;1561;42.666;23.392;2023-10-19T15:04:53;11.00;;;8.23;;
3101;SDS011;1561;42.666;23.392;2023-10-19T15:07:25;42.05;;;20.38;;
3101;SDS011;1561;42.666;23.392;2023-10-19T15:10:02;18.83;;;12.70;;
3101;SDS011;1561;42.666;23.392;2023-10-19T15:12:46;15.10;;;10.55;;
3101;SDS011;1561;42.666;23.392;2023-10-19T15:15:15;21.23;;;12.02;;
3101;SDS011;1561;42.666;23.392;2023-10-19T15:17:43;11.73;;;8.75;;
3101;SDS011;1561;42.666;23.392;2023-10-19T15:20:12;14.43;;;10.15;;
3101;SDS011;1561;42.666;23.392;2023-10-19T15:22:40;13.68;;;10.90;;
3101;SDS011;1561;42.666;23.392;2023-10-19T15:25:10;11.27;;;7.40;;
3101;SDS011;1561;42.666;23.392;2023-10-19T15:27:39;14.07;;;9.63;;